createdAt,value
2022-09-16T00:37:41.180Z,1.02
2022-09-16T00:40:09.252Z,0.95
2022-09-16T00:42:42.697Z,0.80
2022-09-16T00:45:27.228Z,1.00
2022-09-16T00:48:13.932Z,1.00
2022-09-16T00:53:45.726Z,0.90
2022-09-16T00:56:15.129Z,0.77
2022-09-16T00:58:53.512Z,0.98
2022-09-16T01:01:21.804Z,0.90
2022-09-16T01:03:53.944Z,0.90
2022-09-16T01:06:24.598Z,1.60
2022-09-16T01:08:51.609Z,1.10
2022-09-16T01:11:18.711Z,1.13
2022-09-16T01:13:47.359Z,1.27
2022-09-16T01:16:33.070Z,1.38
2022-09-16T01:19:24.131Z,1.25
2022-09-16T01:22:37.348Z,1.00
2022-09-16T01:25:40.798Z,1.30
2022-09-16T01:28:57.167Z,1.10
2022-09-16T01:31:41.907Z,1.17
2022-09-16T01:34:39.836Z,1.48
2022-09-16T01:37:29.032Z,1.02
2022-09-16T01:40:44.156Z,1.02
2022-09-16T01:43:39.359Z,0.90
2022-09-16T01:46:29.880Z,1.67
2022-09-16T01:49:06.708Z,1.10
2022-09-16T01:51:45.789Z,1.30
2022-09-16T01:54:48.518Z,1.67
2022-09-16T01:57:32.086Z,1.20
2022-09-16T02:00:10.690Z,1.20
2022-09-16T02:03:07.648Z,0.93
2022-09-16T02:05:55.293Z,1.00
2022-09-16T02:08:32.651Z,1.30
2022-09-16T02:11:07.265Z,0.98
2022-09-16T02:13:47.191Z,0.80
2022-09-16T02:16:30.754Z,1.20
2022-09-16T02:19:06.596Z,0.80
2022-09-16T02:21:41.301Z,1.02
2022-09-16T02:24:18.619Z,0.90
2022-09-16T02:26:54.245Z,0.80
2022-09-16T02:29:33.321Z,0.70
2022-09-16T02:32:06.527Z,0.70
2022-09-16T02:34:41.275Z,1.02
2022-09-16T02:37:29.535Z,1.10
2022-09-16T02:40:02.285Z,0.88
2022-09-16T02:42:30.776Z,0.90
2022-09-16T02:44:59.867Z,0.70
2022-09-16T02:47:54.778Z,1.00
2022-09-16T02:50:30.903Z,0.93
2022-09-16T02:53:32.355Z,1.00
2022-09-16T02:56:39.351Z,0.60
2022-09-16T02:59:10.222Z,0.90
2022-09-16T03:01:44.776Z,0.63
2022-09-16T03:04:15.977Z,1.02
2022-09-16T03:06:43.337Z,1.08
2022-09-16T03:09:13.284Z,0.80
2022-09-16T03:12:07.829Z,0.90
2022-09-16T03:15:18.869Z,0.98
2022-09-16T03:17:46.133Z,0.77
2022-09-16T03:20:52.722Z,1.42
2022-09-16T03:24:02.515Z,0.70
2022-09-16T03:26:53.235Z,1.00
2022-09-16T03:29:34.048Z,1.00
2022-09-16T03:32:34.910Z,0.95
2022-09-16T03:35:26.528Z,1.00
2022-09-16T03:37:57.064Z,1.00
2022-09-16T03:40:25.162Z,1.10
2022-09-16T03:42:52.349Z,0.90
2022-09-16T03:45:22.198Z,0.95
2022-09-16T03:47:52.654Z,0.93
2022-09-16T03:50:21.247Z,1.30
2022-09-16T03:52:48.077Z,0.80
2022-09-16T03:55:16.940Z,1.00
2022-09-16T03:57:44.066Z,1.30
2022-09-16T04:00:12.121Z,0.80
2022-09-16T04:02:39.400Z,1.13
2022-09-16T04:05:08.161Z,1.25
2022-09-16T04:07:35.729Z,1.00
2022-09-16T04:10:04.124Z,1.35
2022-09-16T04:12:31.344Z,1.15
2022-09-16T04:15:00.313Z,1.20
2022-09-16T04:17:27.772Z,1.60
2022-09-16T04:19:54.660Z,0.98
2022-09-16T04:22:21.542Z,1.20
2022-09-16T04:24:48.395Z,0.90
2022-09-16T04:27:15.359Z,1.10
2022-09-16T04:29:42.601Z,0.70
2022-09-16T04:32:09.401Z,1.10
2022-09-16T04:34:36.210Z,1.10
2022-09-16T04:37:03.510Z,1.15
2022-09-16T04:39:30.353Z,0.88
2022-09-16T04:41:57.338Z,2.22
2022-09-16T04:44:24.225Z,1.23
2022-09-16T04:46:51.173Z,0.90
2022-09-16T04:49:18.492Z,1.48
2022-09-16T04:51:45.762Z,1.27
2022-09-16T04:54:12.734Z,1.30
2022-09-16T04:56:39.701Z,1.15
2022-09-16T04:59:06.697Z,1.00
2022-09-16T05:01:38.537Z,1.00
2022-09-16T05:04:07.797Z,0.90
2022-09-16T05:06:38.947Z,0.98
2022-09-16T05:09:07.186Z,1.00
2022-09-16T05:11:38.872Z,1.15
2022-09-16T05:14:13.077Z,0.93
2022-09-16T05:16:40.006Z,1.00
2022-09-16T05:19:06.843Z,0.93
2022-09-16T05:21:37.200Z,1.50
2022-09-16T05:24:08.661Z,1.13
2022-09-16T05:26:38.803Z,1.00
2022-09-16T05:29:10.876Z,1.30
2022-09-16T05:31:40.693Z,1.15
2022-09-16T05:34:14.179Z,1.40
2022-09-16T05:36:43.920Z,1.10
2022-09-16T05:39:25.094Z,1.27
2022-09-16T05:41:59.339Z,1.10
2022-09-16T05:44:29.103Z,0.95
2022-09-16T05:46:58.129Z,0.90
2022-09-16T05:49:25.652Z,1.08
2022-09-16T05:51:53.349Z,0.90
2022-09-16T05:54:23.707Z,0.77
2022-09-16T05:56:54.083Z,0.80
2022-09-16T05:59:22.590Z,1.35
2022-09-16T06:01:49.701Z,0.80
2022-09-16T06:04:16.699Z,1.20
2022-09-16T06:06:46.467Z,1.00
2022-09-16T06:09:23.696Z,1.15
2022-09-16T06:11:57.967Z,1.00
2022-09-16T06:14:28.785Z,0.68
2022-09-16T06:16:56.200Z,0.80
2022-09-16T06:19:23.354Z,0.95
2022-09-16T06:21:50.396Z,1.17
2022-09-16T06:24:19.822Z,1.20
2022-09-16T06:26:48.572Z,0.98
2022-09-16T06:29:17.551Z,1.13
2022-09-16T06:31:44.632Z,1.27
2022-09-16T06:34:18.315Z,1.35
2022-09-16T06:36:45.842Z,1.50
2022-09-16T06:39:15.565Z,1.30
2022-09-16T06:41:43.211Z,1.27
2022-09-16T06:44:10.398Z,1.77
2022-09-16T06:46:37.825Z,1.63
2022-09-16T06:49:06.442Z,1.30
2022-09-16T06:51:35.801Z,1.40
2022-09-16T06:54:06.662Z,0.93
2022-09-16T06:56:36.254Z,1.40
2022-09-16T06:59:03.776Z,1.15
2022-09-16T07:01:32.822Z,1.30
2022-09-16T07:04:13.056Z,1.10
2022-09-16T07:09:27.287Z,1.30
2022-09-16T07:11:55.232Z,1.10
2022-09-16T07:14:33.219Z,1.00
2022-09-16T07:17:10.239Z,1.45
2022-09-16T07:19:44.792Z,1.08
2022-09-16T07:22:12.067Z,1.00
2022-09-16T07:24:38.871Z,1.20
2022-09-16T07:27:23.234Z,1.08
2022-09-16T07:30:09.054Z,0.90
2022-09-16T07:32:39.342Z,0.90
2022-09-16T07:35:14.110Z,0.95
2022-09-16T07:40:18.331Z,0.90
2022-09-16T07:42:45.875Z,1.35
2022-09-16T07:45:16.491Z,1.00
2022-09-16T07:47:43.802Z,1.58
2022-09-16T07:50:11.335Z,1.30
2022-09-16T07:52:38.234Z,1.30
2022-09-16T07:55:05.907Z,1.20
2022-09-16T07:57:32.964Z,1.10
2022-09-16T08:00:00.379Z,0.90
2022-09-16T08:02:38.822Z,0.82
2022-09-16T08:05:10.246Z,1.27
2022-09-16T08:07:44.071Z,1.08
2022-09-16T08:10:11.235Z,0.80
2022-09-16T08:12:38.189Z,0.90
2022-09-16T08:15:06.038Z,1.05
2022-09-16T08:17:33.580Z,0.80
2022-09-16T08:20:01.090Z,1.27
2022-09-16T08:22:28.194Z,1.00
2022-09-16T08:24:57.913Z,1.00
2022-09-16T08:27:25.020Z,0.60
2022-09-16T08:30:00.456Z,0.70
2022-09-16T08:32:27.479Z,0.60
2022-09-16T08:34:54.487Z,0.82
2022-09-16T08:37:27.043Z,0.85
2022-09-16T08:40:01.153Z,0.90
2022-09-16T08:42:53.650Z,0.85
2022-09-16T08:45:55.288Z,0.98
2022-09-16T08:48:50.957Z,0.80
2022-09-16T08:54:06.580Z,0.65
2022-09-16T08:56:42.767Z,0.90
2022-09-16T09:03:27.258Z,0.80
2022-09-16T09:05:57.770Z,0.73
2022-09-16T09:08:47.720Z,0.75
2022-09-16T09:11:44.418Z,0.50
2022-09-16T09:15:07.969Z,0.50
2022-09-16T09:18:00.011Z,0.77
2022-09-16T09:20:52.649Z,0.60
2022-09-16T09:24:01.339Z,0.80
2022-09-16T09:26:48.502Z,0.43
2022-09-16T09:29:31.400Z,0.80
2022-09-16T09:32:21.438Z,0.55
2022-09-16T09:35:28.256Z,0.55
2022-09-16T09:38:34.339Z,0.47
2022-09-16T09:41:15.175Z,0.77
2022-09-16T09:44:27.603Z,0.80
2022-09-16T09:47:15.778Z,0.50
2022-09-16T09:49:57.710Z,0.70
2022-09-16T09:52:52.065Z,0.63
2022-09-16T09:55:26.576Z,0.60
2022-09-16T09:58:20.696Z,0.50
2022-09-16T10:00:50.945Z,0.60
2022-09-16T10:03:20.134Z,0.50
2022-09-16T10:05:48.610Z,0.60
2022-09-16T10:08:21.563Z,0.60
2022-09-16T10:10:55.888Z,0.70
2022-09-16T10:13:25.797Z,0.40
2022-09-16T10:16:13.284Z,0.52
2022-09-16T10:18:40.513Z,0.40
2022-09-16T10:21:15.573Z,0.70
2022-09-16T10:23:56.056Z,0.70
2022-09-16T10:26:29.359Z,0.40
2022-09-16T10:29:15.309Z,0.22
2022-09-16T10:31:43.161Z,0.50
2022-09-16T10:34:40.110Z,0.40
2022-09-16T10:37:11.198Z,0.60
2022-09-16T10:39:42.827Z,0.43
2022-09-16T10:42:26.260Z,0.50
2022-09-16T10:45:05.249Z,0.45
2022-09-16T10:47:36.229Z,0.63
2022-09-16T10:50:29.111Z,0.80
2022-09-16T10:52:56.352Z,0.68
2022-09-16T10:55:29.433Z,0.60
2022-09-16T10:58:21.856Z,0.70
2022-09-16T11:00:51.934Z,0.57
2022-09-16T11:03:40.504Z,0.60
2022-09-16T11:06:17.525Z,0.80
2022-09-16T11:09:06.702Z,0.70
2022-09-16T11:12:16.552Z,0.80
2022-09-16T11:15:34.680Z,0.45
2022-09-16T11:18:35.970Z,0.70
2022-09-16T11:21:24.602Z,0.75
2022-09-16T11:24:27.160Z,0.80
2022-09-16T11:27:17.612Z,0.75
2022-09-16T11:30:12.653Z,0.75
2022-09-16T11:33:22.377Z,0.47
2022-09-16T11:36:10.438Z,0.47
2022-09-16T11:39:01.801Z,0.52
2022-09-16T11:41:48.356Z,0.57
2022-09-16T11:44:50.487Z,0.55
2022-09-16T11:47:54.659Z,0.60
2022-09-16T11:51:13.077Z,0.70
2022-09-16T11:54:09.973Z,0.50
2022-09-16T12:01:13.996Z,0.73
2022-09-16T12:32:20.127Z,0.68
2022-09-16T12:35:21.018Z,0.40
2022-09-16T12:37:58.078Z,0.60
2022-09-16T12:41:16.230Z,0.50
2022-09-16T12:44:40.788Z,0.50
2022-09-16T12:48:05.061Z,0.70
2022-09-16T12:50:44.267Z,0.40
2022-09-16T12:53:52.765Z,0.40
2022-09-16T12:56:46.586Z,0.60
2022-09-16T12:59:22.473Z,0.50
2022-09-16T13:02:00.067Z,0.45
2022-09-16T13:04:33.218Z,0.52
2022-09-16T13:07:02.069Z,0.60
2022-09-16T13:09:40.724Z,0.40
2022-09-16T13:12:44.758Z,0.50
2022-09-16T13:15:36.472Z,0.40
2022-09-16T13:18:23.359Z,0.60
2022-09-16T13:21:07.642Z,0.50
2022-09-16T13:23:43.558Z,0.60
2022-09-16T13:26:10.904Z,0.43
2022-09-16T13:28:43.394Z,0.70
2022-09-16T13:31:17.723Z,0.50
2022-09-16T13:34:02.739Z,0.47
2022-09-16T13:36:32.969Z,0.60
2022-09-16T13:39:32.415Z,0.40
2022-09-16T13:42:18.418Z,0.52
2022-09-16T13:44:45.651Z,0.60
2022-09-16T13:47:15.063Z,0.55
2022-09-16T13:49:57.606Z,0.40
2022-09-16T13:52:32.762Z,0.50
2022-09-16T13:55:11.635Z,0.52
2022-09-16T13:57:49.937Z,0.30
2022-09-16T14:00:32.374Z,0.40
2022-09-16T14:03:55.132Z,0.45
2022-09-16T14:06:43.206Z,0.40
2022-09-16T14:09:32.148Z,0.50
2022-09-16T14:12:15.580Z,0.43
2022-09-16T14:14:47.336Z,0.40
2022-09-16T14:17:22.154Z,0.40
2022-09-16T14:19:53.673Z,0.40
2022-09-16T14:22:23.087Z,0.50
2022-09-16T14:25:00.528Z,0.40
2022-09-16T14:27:37.704Z,0.60
2022-09-16T14:30:15.115Z,0.30
2022-09-16T14:32:42.564Z,0.30
2022-09-16T14:35:18.697Z,0.40
2022-09-16T14:37:50.058Z,0.30
2022-09-16T14:40:23.362Z,0.30
2022-09-16T14:43:18.159Z,0.30
2022-09-16T14:45:52.916Z,0.20
2022-09-16T14:48:29.667Z,0.30
2022-09-16T14:50:58.798Z,0.38
2022-09-16T14:53:38.191Z,0.20
2022-09-16T14:56:06.077Z,0.20
2022-09-16T14:58:36.760Z,0.50
2022-09-16T15:01:13.221Z,0.22
2022-09-16T15:03:49.286Z,0.30
2022-09-16T15:06:24.299Z,0.32
2022-09-16T15:11:50.228Z,0.43
2022-09-16T15:14:18.664Z,0.60
2022-09-16T15:16:50.429Z,0.50
2022-09-16T15:19:25.291Z,0.30
2022-09-16T15:21:53.669Z,0.40
2022-09-16T15:24:28.821Z,0.20
2022-09-16T15:26:57.834Z,0.68
2022-09-16T15:29:25.046Z,0.30
2022-09-16T15:31:52.716Z,0.35
2022-09-16T15:34:22.417Z,0.40
2022-09-16T15:36:58.115Z,0.50
2022-09-16T15:39:38.578Z,0.45
2022-09-16T15:42:32.074Z,0.25
2022-09-16T15:45:02.411Z,0.43
2022-09-16T15:47:50.654Z,0.70
2022-09-16T15:50:22.199Z,0.50
2022-09-16T15:53:39.722Z,0.50
2022-09-16T15:56:42.654Z,0.45
2022-09-16T15:59:37.668Z,0.45
2022-09-16T16:02:19.604Z,0.50
2022-09-16T16:04:46.663Z,0.50
2022-09-16T16:07:44.256Z,0.60
2022-09-16T16:10:27.558Z,0.50
2022-09-16T16:12:55.470Z,0.60
2022-09-16T16:15:27.476Z,0.60
2022-09-16T16:17:59.734Z,0.60
2022-09-16T16:20:27.531Z,0.40
2022-09-16T16:22:55.419Z,0.75
2022-09-16T16:25:22.349Z,0.60
2022-09-16T16:27:49.195Z,0.43
2022-09-16T16:30:16.122Z,0.45
2022-09-16T16:32:43.050Z,0.50
2022-09-16T16:35:10.176Z,0.50
2022-09-16T16:37:52.723Z,0.68
2022-09-16T16:40:19.864Z,0.57
2022-09-16T16:42:46.749Z,0.40
2022-09-16T16:45:14.738Z,0.52
2022-09-16T16:47:43.966Z,0.65
2022-09-16T16:50:11.545Z,0.73
2022-09-16T16:52:38.877Z,0.63
2022-09-16T16:55:06.697Z,0.88
2022-09-16T16:57:33.532Z,0.80
2022-09-16T17:00:00.776Z,0.80
2022-09-16T17:02:27.713Z,0.88
2022-09-16T17:04:56.783Z,0.60
2022-09-16T17:07:26.594Z,0.70
2022-09-16T17:09:55.781Z,0.57
2022-09-16T17:12:22.668Z,0.73
2022-09-16T17:14:49.534Z,0.98
2022-09-16T17:17:16.579Z,0.70
2022-09-16T17:19:43.504Z,0.80
2022-09-16T17:22:11.137Z,0.73
2022-09-16T17:24:38.054Z,0.88
2022-09-16T17:27:04.995Z,1.00
2022-09-16T17:29:32.030Z,0.70
2022-09-16T17:32:02.370Z,1.02
2022-09-16T17:34:30.001Z,0.90
2022-09-16T17:36:58.274Z,1.40
2022-09-16T17:39:25.756Z,1.10
2022-09-16T17:41:54.398Z,0.82
2022-09-16T17:44:21.358Z,1.17
2022-09-16T17:46:49.490Z,1.00
2022-09-16T17:49:21.388Z,1.00
2022-09-16T17:51:49.592Z,1.38
2022-09-16T17:54:17.830Z,1.10
2022-09-16T17:56:45.702Z,1.10
2022-09-16T17:59:15.916Z,1.38
2022-09-16T18:01:42.957Z,1.40
2022-09-16T18:04:10.063Z,1.50
2022-09-16T18:06:55.238Z,1.63
2022-09-16T18:09:22.348Z,1.67
2022-09-16T18:11:49.346Z,2.05
2022-09-16T18:14:19.118Z,1.98
2022-09-16T18:16:49.819Z,1.75
2022-09-16T18:19:16.813Z,2.00
2022-09-16T18:21:43.674Z,2.03
2022-09-16T18:24:13.119Z,2.15
2022-09-16T18:26:42.036Z,1.90
2022-09-16T18:29:12.515Z,2.78
2022-09-16T18:31:42.649Z,2.28
2022-09-16T18:34:10.933Z,2.53
2022-09-16T18:36:39.296Z,2.42
2022-09-16T18:39:10.771Z,2.22
2022-09-16T18:41:40.784Z,2.42
2022-09-16T18:44:17.306Z,2.50
2022-09-16T18:46:44.332Z,2.13
2022-09-16T18:49:14.330Z,2.50
2022-09-16T18:51:50.537Z,2.20
2022-09-16T18:54:25.920Z,2.15
2022-09-16T18:56:55.683Z,1.98
2022-09-16T18:59:28.401Z,2.08
2022-09-16T19:02:03.339Z,1.70
2022-09-16T19:04:39.921Z,1.80
2022-09-16T20:26:42.287Z,1.35
2022-09-16T20:29:09.144Z,4.05
2022-09-16T20:31:37.433Z,3.10
2022-09-16T20:34:07.562Z,1.30
2022-09-16T20:36:46.701Z,1.27
2022-09-16T20:39:14.471Z,1.55
2022-09-16T20:41:42.941Z,1.30
2022-09-16T20:44:14.760Z,1.40
2022-09-16T20:46:41.929Z,1.20
2022-09-16T20:49:16.936Z,1.33
2022-09-16T20:51:45.376Z,1.33
2022-09-16T20:54:15.588Z,1.15
2022-09-16T20:56:46.701Z,1.30
2022-09-16T20:59:16.372Z,1.10
2022-09-16T21:01:44.406Z,1.25
2022-09-16T21:04:15.843Z,1.48
2022-09-16T21:06:43.642Z,1.45
2022-09-16T21:09:14.877Z,1.30
2022-09-16T21:11:45.050Z,1.23
2022-09-16T21:14:16.664Z,1.50
2022-09-16T21:16:46.130Z,1.30
2022-09-16T21:19:14.164Z,1.20
2022-09-16T21:21:48.552Z,1.40
2022-09-16T21:24:16.520Z,1.63
2022-09-16T21:26:45.613Z,1.30
2022-09-16T21:29:20.997Z,1.23
2022-09-16T21:31:51.100Z,1.30
2022-09-16T21:34:21.398Z,1.08
2022-09-16T21:36:50.448Z,1.00
2022-09-16T21:39:20.037Z,1.35
2022-09-16T21:41:51.783Z,1.13
2022-09-16T21:44:18.959Z,0.90
2022-09-16T21:46:47.341Z,0.70
2022-09-16T21:49:23.041Z,1.05
2022-09-16T21:51:55.138Z,0.90
2022-09-16T21:54:23.708Z,1.00
2022-09-16T21:56:51.767Z,1.25
2022-09-16T21:59:20.030Z,1.48
2022-09-16T22:01:49.927Z,1.00
2022-09-16T22:04:23.475Z,1.05
2022-09-16T22:06:52.747Z,0.75
2022-09-16T22:09:20.130Z,0.63
2022-09-16T22:11:47.789Z,0.93
2022-09-16T22:14:14.857Z,0.60
2022-09-16T22:16:41.919Z,0.93
2022-09-16T22:19:13.793Z,0.60
2022-09-16T22:21:44.088Z,0.70
2022-09-16T22:24:12.530Z,0.90
2022-09-16T22:26:40.387Z,1.00
2022-09-16T22:29:09.426Z,1.00
2022-09-16T22:31:39.153Z,1.25
2022-09-16T22:34:06.762Z,0.98
2022-09-16T22:36:36.219Z,1.10
2022-09-16T22:39:10.905Z,1.10
2022-09-16T22:41:38.813Z,1.10
2022-09-16T22:44:07.246Z,0.75
2022-09-16T22:46:46.836Z,1.15
2022-09-16T22:49:17.325Z,1.00
2022-09-16T22:51:44.817Z,1.00
2022-09-16T22:54:17.872Z,1.00
2022-09-16T22:56:45.355Z,1.00
2022-09-16T22:59:20.764Z,1.40
2022-09-16T23:01:48.854Z,0.70
2022-09-16T23:04:17.411Z,1.02
2022-09-16T23:06:47.401Z,0.93
2022-09-16T23:09:15.450Z,1.50
2022-09-16T23:11:43.082Z,1.10
2022-09-16T23:14:23.440Z,1.08
2022-09-16T23:16:51.629Z,1.20
2022-09-16T23:19:19.141Z,1.20
2022-09-16T23:21:46.783Z,0.98
2022-09-16T23:24:20.729Z,1.38
2022-09-16T23:26:49.226Z,1.05
2022-09-16T23:29:18.359Z,1.38
2022-09-16T23:31:46.063Z,1.00
2022-09-16T23:34:19.418Z,1.30
2022-09-16T23:36:47.633Z,1.08
2022-09-16T23:39:16.657Z,1.10
2022-09-16T23:41:44.255Z,1.00
2022-09-16T23:44:15.714Z,1.08
2022-09-16T23:46:43.641Z,1.23
2022-09-16T23:49:11.159Z,1.52
2022-09-16T23:51:38.047Z,1.20
2022-09-16T23:54:04.962Z,1.00
2022-09-16T23:56:32.047Z,1.35
2022-09-16T23:59:00.853Z,1.27
